createdAt,value
2022-10-17T00:01:37.868Z,48.40
2022-10-17T00:04:04.358Z,48.46
2022-10-17T00:06:30.790Z,48.57
2022-10-17T00:08:57.145Z,48.57
2022-10-17T00:11:24.197Z,48.49
2022-10-17T00:13:51.828Z,48.50
2022-10-17T00:16:28.634Z,48.45
2022-10-17T00:18:55.157Z,48.56
2022-10-17T00:21:21.838Z,48.44
2022-10-17T00:23:48.235Z,48.38
2022-10-17T00:26:15.052Z,48.67
2022-10-17T00:28:41.562Z,48.45
2022-10-17T00:31:08.256Z,48.62
2022-10-17T00:33:35.098Z,48.62
2022-10-17T00:36:04.661Z,48.44
2022-10-17T00:38:31.120Z,48.65
2022-10-17T00:40:57.525Z,48.51
2022-10-17T00:43:24.103Z,48.49
2022-10-17T00:45:50.498Z,48.61
2022-10-17T00:48:21.167Z,48.67
2022-10-17T00:50:49.952Z,48.43
2022-10-17T00:53:16.628Z,48.45
2022-10-17T00:55:46.311Z,48.50
2022-10-17T00:58:12.919Z,48.47
2022-10-17T01:00:39.970Z,48.48
2022-10-17T01:03:06.314Z,48.51
2022-10-17T01:05:33.047Z,48.65
2022-10-17T01:07:59.584Z,48.50
2022-10-17T01:10:46.168Z,48.61
2022-10-17T01:13:18.858Z,48.64
2022-10-17T01:15:57.274Z,48.69
2022-10-17T01:18:29.852Z,48.41
2022-10-17T01:21:10.820Z,48.41
2022-10-17T01:23:57.434Z,48.47
2022-10-17T01:26:23.820Z,48.73
2022-10-17T01:29:09.093Z,48.67
2022-10-17T01:31:41.445Z,48.62
2022-10-17T01:34:16.004Z,48.58
2022-10-17T01:36:45.218Z,48.47
2022-10-17T01:39:26.888Z,48.63
2022-10-17T01:41:55.696Z,48.66
2022-10-17T01:44:32.531Z,48.65
2022-10-17T01:47:03.227Z,48.69
2022-10-17T01:49:32.066Z,48.56
2022-10-17T01:52:01.729Z,48.61
2022-10-17T01:54:31.539Z,48.83
2022-10-17T01:56:59.757Z,48.91
2022-10-17T01:59:29.978Z,48.79
2022-10-17T02:01:58.503Z,48.63
2022-10-17T02:04:25.425Z,48.69
2022-10-17T02:06:51.823Z,48.63
2022-10-17T02:09:19.617Z,48.79
2022-10-17T02:12:04.971Z,48.83
2022-10-17T02:14:51.739Z,48.94
2022-10-17T02:17:24.121Z,48.69
2022-10-17T02:19:55.487Z,49.06
2022-10-17T02:22:35.294Z,49.51
2022-10-17T02:25:01.715Z,49.34
2022-10-17T02:27:47.734Z,49.31
2022-10-17T02:30:32.093Z,48.83
2022-10-17T02:32:58.438Z,48.90
2022-10-17T02:35:27.467Z,49.12
2022-10-17T02:37:54.276Z,49.16
2022-10-17T02:40:22.088Z,49.21
2022-10-17T02:42:49.591Z,49.42
2022-10-17T02:45:16.528Z,49.07
2022-10-17T02:47:57.339Z,49.15
2022-10-17T02:53:05.653Z,48.85
2022-10-17T02:55:33.827Z,49.01
2022-10-17T02:58:02.749Z,48.88
2022-10-17T03:00:30.026Z,49.35
2022-10-17T03:02:56.482Z,49.09
2022-10-17T03:05:24.072Z,49.26
2022-10-17T03:07:50.637Z,49.54
2022-10-17T03:10:17.158Z,49.51
2022-10-17T03:12:43.560Z,49.59
2022-10-17T03:15:10.265Z,49.42
2022-10-17T03:17:37.114Z,49.20
2022-10-17T03:20:04.487Z,49.48
2022-10-17T03:22:31.146Z,49.45
2022-10-17T03:24:58.490Z,49.90
2022-10-17T03:27:25.199Z,49.66
2022-10-17T03:29:51.531Z,49.62
2022-10-17T03:32:17.917Z,49.74
2022-10-17T03:34:44.377Z,49.50
2022-10-17T03:37:10.732Z,49.25
2022-10-17T03:39:37.130Z,49.29
2022-10-17T03:42:03.505Z,49.15
2022-10-17T03:44:29.988Z,49.15
2022-10-17T03:46:56.717Z,48.99
2022-10-17T03:49:23.113Z,49.14
2022-10-17T03:51:49.523Z,49.35
2022-10-17T03:54:15.848Z,49.34
2022-10-17T03:56:42.474Z,49.32
2022-10-17T03:59:12.451Z,49.46
2022-10-17T04:01:38.967Z,49.21
2022-10-17T04:04:05.676Z,49.27
2022-10-17T04:06:32.487Z,49.34
2022-10-17T04:08:59.145Z,49.31
2022-10-17T04:11:25.478Z,49.30
2022-10-17T04:13:55.721Z,49.26
2022-10-17T04:16:22.555Z,49.11
2022-10-17T04:18:52.580Z,49.13
2022-10-17T04:21:19.348Z,49.22
2022-10-17T04:23:45.779Z,49.00
2022-10-17T04:26:12.203Z,49.48
2022-10-17T04:31:07.255Z,49.28
2022-10-17T04:33:34.465Z,49.13
2022-10-17T04:36:22.922Z,49.12
2022-10-17T04:38:49.377Z,49.30
2022-10-17T04:41:17.590Z,49.16
2022-10-17T04:43:46.916Z,49.18
2022-10-17T04:46:16.596Z,49.20
2022-10-17T04:48:42.998Z,49.17
2022-10-17T04:51:11.761Z,49.22
2022-10-17T04:53:38.577Z,49.21
2022-10-17T04:56:09.001Z,49.47
2022-10-17T04:58:35.395Z,49.34
2022-10-17T05:01:09.102Z,49.70
2022-10-17T05:03:35.650Z,49.37
2022-10-17T05:06:12.304Z,49.30
2022-10-17T05:08:38.765Z,49.29
2022-10-17T05:11:05.878Z,49.41
2022-10-17T05:13:33.003Z,49.24
2022-10-17T05:16:00.203Z,49.28
2022-10-17T05:18:27.287Z,49.24
2022-10-17T05:20:53.721Z,49.48
2022-10-17T05:23:20.077Z,49.20
2022-10-17T05:25:46.501Z,49.60
2022-10-17T05:28:12.846Z,49.31
2022-10-17T05:30:39.235Z,49.48
2022-10-17T05:33:05.628Z,49.39
2022-10-17T05:35:32.100Z,49.53
2022-10-17T05:37:59.033Z,49.40
2022-10-17T05:40:25.499Z,49.61
2022-10-17T05:42:52.040Z,50.10
2022-10-17T05:45:18.664Z,49.88
2022-10-17T05:47:47.424Z,49.78
2022-10-17T05:50:13.825Z,49.71
2022-10-17T05:52:41.944Z,49.86
2022-10-17T05:55:10.397Z,49.76
2022-10-17T05:57:36.878Z,49.72
2022-10-17T06:00:03.980Z,49.73
2022-10-17T06:02:30.719Z,49.84
2022-10-17T06:04:57.499Z,49.76
2022-10-17T06:07:23.860Z,49.93
2022-10-17T06:09:50.440Z,49.81
2022-10-17T06:12:16.778Z,49.82
2022-10-17T06:14:43.207Z,49.77
2022-10-17T06:17:14.841Z,49.87
2022-10-17T06:19:42.440Z,49.84
2022-10-17T06:22:08.854Z,49.73
2022-10-17T06:24:35.354Z,49.83
2022-10-17T06:27:01.693Z,49.68
2022-10-17T06:29:28.044Z,49.87
2022-10-17T06:31:54.433Z,49.98
2022-10-17T06:34:20.877Z,49.85
2022-10-17T06:36:47.318Z,49.94
2022-10-17T06:39:13.759Z,50.07
2022-10-17T06:41:41.398Z,49.87
2022-10-17T06:44:13.972Z,49.93
2022-10-17T06:46:40.802Z,50.09
2022-10-17T06:49:07.293Z,50.10
2022-10-17T06:51:37.406Z,49.94
2022-10-17T06:54:04.373Z,49.83
2022-10-17T06:56:30.899Z,49.94
2022-10-17T06:58:57.402Z,50.06
2022-10-17T07:01:23.841Z,49.98
2022-10-17T07:03:50.284Z,49.93
2022-10-17T07:06:17.961Z,50.07
2022-10-17T07:08:45.151Z,50.07
2022-10-17T07:11:18.638Z,50.22
2022-10-17T07:13:45.363Z,50.18
2022-10-17T07:16:12.070Z,51.10
2022-10-17T07:18:38.746Z,51.30
2022-10-17T07:21:05.522Z,51.45
2022-10-17T07:23:31.992Z,51.16
2022-10-17T07:26:02.357Z,50.97
2022-10-17T07:28:29.110Z,50.83
2022-10-17T07:30:55.591Z,50.52
2022-10-17T07:33:21.966Z,50.41
2022-10-17T07:35:48.333Z,50.37
2022-10-17T07:38:14.697Z,50.35
2022-10-17T07:40:41.016Z,50.39
2022-10-17T07:43:07.469Z,50.53
2022-10-17T07:45:33.922Z,50.29
2022-10-17T07:48:00.318Z,50.51
2022-10-17T07:50:26.748Z,50.34
2022-10-17T07:52:53.269Z,50.32
2022-10-17T07:55:19.737Z,50.31
2022-10-17T07:57:46.184Z,50.15
2022-10-17T08:00:12.798Z,50.45
2022-10-17T08:02:39.611Z,50.55
2022-10-17T08:05:06.250Z,50.18
2022-10-17T08:07:32.734Z,50.61
2022-10-17T08:10:00.260Z,50.48
2022-10-17T08:12:26.943Z,50.33
2022-10-17T08:14:53.540Z,50.29
2022-10-17T08:17:19.972Z,50.26
2022-10-17T08:19:46.431Z,50.26
2022-10-17T08:22:12.826Z,50.36
2022-10-17T08:24:39.256Z,50.42
2022-10-17T08:27:11.418Z,50.16
2022-10-17T08:29:38.513Z,50.21
2022-10-17T08:32:07.668Z,50.02
2022-10-17T08:34:35.546Z,50.19
2022-10-17T08:37:02.111Z,49.89
2022-10-17T08:39:28.836Z,50.44
2022-10-17T08:42:04.181Z,50.36
2022-10-17T08:44:36.870Z,50.59
2022-10-17T08:47:04.566Z,50.74
2022-10-17T08:49:52.546Z,50.43
2022-10-17T08:52:32.398Z,50.33
2022-10-17T08:54:59.659Z,50.53
2022-10-17T08:57:26.283Z,50.30
2022-10-17T08:59:54.238Z,50.44
2022-10-17T09:02:39.734Z,50.20
2022-10-17T09:05:26.559Z,50.24
2022-10-17T09:08:22.752Z,50.33
2022-10-17T09:11:00.554Z,50.10
2022-10-17T09:13:30.136Z,50.32
2022-10-17T09:16:11.570Z,50.22
2022-10-17T09:18:43.129Z,50.22
2022-10-17T09:21:39.579Z,50.12
2022-10-17T09:24:15.785Z,49.93
2022-10-17T09:26:44.384Z,49.99
2022-10-17T09:29:15.441Z,50.14
2022-10-17T09:31:47.371Z,49.99
2022-10-17T09:34:14.514Z,49.93
2022-10-17T09:36:40.907Z,49.88
2022-10-17T09:39:16.761Z,50.27
2022-10-17T09:41:49.840Z,50.05
2022-10-17T09:44:21.843Z,49.94
2022-10-17T09:47:07.248Z,50.01
2022-10-17T09:49:38.336Z,49.91
2022-10-17T09:52:06.894Z,49.89
2022-10-17T09:54:41.437Z,50.03
2022-10-17T09:57:09.723Z,50.04
2022-10-17T09:59:37.810Z,50.06
2022-10-17T10:02:24.470Z,49.82
2022-10-17T10:05:04.082Z,50.14
2022-10-17T10:07:38.756Z,50.07
2022-10-17T10:10:22.828Z,49.82
2022-10-17T10:13:02.168Z,49.92
2022-10-17T10:15:33.951Z,49.75
2022-10-17T10:18:00.375Z,49.95
2022-10-17T10:20:26.823Z,49.80
2022-10-17T10:23:12.462Z,50.14
2022-10-17T10:25:48.797Z,49.92
2022-10-17T10:28:16.008Z,49.92
2022-10-17T10:30:46.848Z,49.96
2022-10-17T10:33:13.333Z,49.96
2022-10-17T10:35:39.806Z,49.84
2022-10-17T10:38:17.190Z,49.67
2022-10-17T10:40:48.099Z,49.89
2022-10-17T10:43:26.905Z,49.85
2022-10-17T10:45:53.499Z,49.80
2022-10-17T10:48:23.180Z,49.83
2022-10-17T10:50:49.643Z,49.98
2022-10-17T10:53:34.957Z,49.77
2022-10-17T10:56:04.833Z,49.52
2022-10-17T10:58:35.266Z,49.61
2022-10-17T11:01:14.487Z,49.59
2022-10-17T11:04:01.260Z,49.60
2022-10-17T11:06:29.200Z,49.74
2022-10-17T11:09:04.420Z,49.93
2022-10-17T11:11:40.553Z,50.27
2022-10-17T11:14:13.756Z,50.29
2022-10-17T11:16:44.876Z,50.17
2022-10-17T11:19:14.609Z,50.11
2022-10-17T11:24:15.556Z,50.26
2022-10-17T11:26:45.099Z,50.04
2022-10-17T11:29:12.533Z,50.12
2022-10-17T11:31:43.261Z,49.85
2022-10-17T11:34:20.627Z,50.11
2022-10-17T11:36:49.645Z,49.93
2022-10-17T11:39:22.742Z,49.95
2022-10-17T11:42:04.266Z,49.85
2022-10-17T11:44:37.952Z,50.19
2022-10-17T11:47:04.437Z,49.94
2022-10-17T11:49:38.194Z,50.07
2022-10-17T11:52:37.382Z,50.14
2022-10-17T11:55:13.437Z,50.14
2022-10-17T11:57:46.131Z,50.36
2022-10-17T12:00:25.122Z,50.20
2022-10-17T12:03:00.476Z,50.04
2022-10-17T12:05:26.900Z,50.38
2022-10-17T12:08:01.155Z,50.38
2022-10-17T12:10:39.382Z,50.41
2022-10-17T12:13:24.647Z,49.92
2022-10-17T12:15:51.046Z,50.23
2022-10-17T12:18:17.598Z,49.90
2022-10-17T12:20:55.646Z,50.36
2022-10-17T12:23:26.101Z,50.35
2022-10-17T12:25:52.568Z,50.02
2022-10-17T12:28:27.389Z,50.15
2022-10-17T12:31:05.904Z,50.26
2022-10-17T12:33:32.384Z,50.25
2022-10-17T12:36:17.196Z,50.21
2022-10-17T12:38:47.822Z,50.10
2022-10-17T12:41:17.009Z,49.90
2022-10-17T12:43:44.782Z,50.27
2022-10-17T12:46:11.909Z,50.12
2022-10-17T12:48:38.468Z,49.82
2022-10-17T12:53:57.474Z,49.95
2022-10-17T12:56:31.742Z,49.78
2022-10-17T12:58:59.213Z,49.98
2022-10-17T13:01:30.960Z,49.98
2022-10-17T13:03:58.485Z,49.76
2022-10-17T13:06:26.747Z,49.74
2022-10-17T13:09:13.411Z,49.79
2022-10-17T13:11:40.075Z,49.90
2022-10-17T13:14:11.868Z,49.72
2022-10-17T13:16:39.642Z,49.89
2022-10-17T13:19:16.494Z,49.53
2022-10-17T13:22:05.975Z,49.72
2022-10-17T13:24:38.125Z,49.85
2022-10-17T13:27:22.568Z,49.72
2022-10-17T13:29:49.074Z,49.82
2022-10-17T13:32:15.511Z,49.73
2022-10-17T13:34:41.921Z,49.69
2022-10-17T13:37:10.750Z,49.71
2022-10-17T13:40:03.028Z,49.80
2022-10-17T13:42:37.941Z,49.78
2022-10-17T13:45:11.841Z,49.62
2022-10-17T13:47:39.245Z,49.90
2022-10-17T13:50:12.763Z,49.77
2022-10-17T13:52:47.670Z,49.79
2022-10-17T13:55:17.982Z,49.57
2022-10-17T13:57:44.402Z,49.70
2022-10-17T14:00:21.656Z,49.52
2022-10-17T14:02:48.474Z,49.81
2022-10-17T14:05:19.742Z,49.55
2022-10-17T14:08:10.152Z,49.81
2022-10-17T14:10:35.379Z,49.70
2022-10-17T14:13:04.315Z,49.65
2022-10-17T14:15:31.841Z,49.65
2022-10-17T14:18:02.310Z,50.08
2022-10-17T14:23:38.007Z,49.73
2022-10-17T14:26:12.651Z,49.95
2022-10-17T14:28:40.110Z,49.93
2022-10-17T14:31:11.557Z,49.60
2022-10-17T14:33:41.464Z,49.93
2022-10-17T14:36:09.624Z,49.94
2022-10-17T14:38:36.351Z,49.78
2022-10-17T14:44:00.680Z,50.00
2022-10-17T14:46:27.689Z,49.95
2022-10-17T14:48:56.046Z,49.97
2022-10-17T14:51:22.851Z,49.86
2022-10-17T14:54:08.049Z,49.70
2022-10-17T14:56:41.658Z,49.95
2022-10-17T14:59:13.743Z,49.91
2022-10-17T15:01:44.697Z,49.89
2022-10-17T15:04:11.043Z,50.03
2022-10-17T15:06:37.471Z,50.05
2022-10-17T15:09:04.559Z,50.09
2022-10-17T15:11:31.012Z,50.09
2022-10-17T15:13:57.379Z,49.87
2022-10-17T15:16:30.724Z,49.87
2022-10-17T15:18:57.453Z,49.93
2022-10-17T15:21:33.933Z,50.07
2022-10-17T15:24:06.151Z,50.15
2022-10-17T15:26:33.613Z,49.94
2022-10-17T15:29:00.578Z,50.00
2022-10-17T15:31:28.863Z,49.91
2022-10-17T15:33:55.234Z,50.22
2022-10-17T15:36:23.170Z,50.17
2022-10-17T15:38:50.513Z,50.10
2022-10-17T15:41:16.995Z,49.91
2022-10-17T15:43:43.403Z,50.20
2022-10-17T15:46:12.241Z,50.02
2022-10-17T15:48:38.721Z,50.27
2022-10-17T15:51:05.154Z,50.03
2022-10-17T15:53:31.590Z,50.30
2022-10-17T15:55:58.673Z,50.08
2022-10-17T15:58:25.075Z,50.37
2022-10-17T16:00:51.681Z,50.63
2022-10-17T16:03:18.103Z,50.38
2022-10-17T16:05:44.461Z,50.42
2022-10-17T16:08:10.921Z,50.17
2022-10-17T16:10:39.339Z,50.37
2022-10-17T16:13:05.775Z,50.28
2022-10-17T16:15:32.095Z,50.31
2022-10-17T16:18:01.574Z,50.09
2022-10-17T16:20:31.796Z,50.25
2022-10-17T16:23:00.775Z,50.07
2022-10-17T16:25:28.169Z,50.13
2022-10-17T16:27:55.334Z,50.19
2022-10-17T16:32:49.370Z,50.18
2022-10-17T16:35:19.948Z,50.12
2022-10-17T16:37:47.488Z,49.88
2022-10-17T16:40:14.021Z,49.89
2022-10-17T16:42:40.454Z,50.05
2022-10-17T16:45:07.087Z,50.12
2022-10-17T16:47:33.466Z,50.06
2022-10-17T16:49:59.893Z,50.07
2022-10-17T16:52:26.265Z,50.21
2022-10-17T16:54:53.227Z,49.90
2022-10-17T16:57:19.721Z,49.83
2022-10-17T16:59:46.528Z,49.81
2022-10-17T17:02:15.191Z,49.66
2022-10-17T17:04:42.641Z,50.07
2022-10-17T17:07:09.063Z,49.91
2022-10-17T17:09:35.519Z,50.02
2022-10-17T17:12:01.977Z,50.01
2022-10-17T17:14:28.340Z,49.66
2022-10-17T17:16:54.769Z,49.91
2022-10-17T17:19:21.156Z,49.81
2022-10-17T17:21:50.717Z,49.73
2022-10-17T17:24:17.939Z,49.68
2022-10-17T17:26:44.382Z,49.84
2022-10-17T17:29:12.144Z,49.70
2022-10-17T17:31:39.354Z,49.81
2022-10-17T17:34:06.044Z,49.85
2022-10-17T17:36:34.148Z,49.97
2022-10-17T17:39:01.383Z,49.83
2022-10-17T17:41:28.235Z,49.61
2022-10-17T17:43:54.864Z,49.77
2022-10-17T17:46:21.951Z,49.66
2022-10-17T17:48:48.989Z,49.61
2022-10-17T17:51:16.511Z,49.84
2022-10-17T17:53:43.269Z,49.51
2022-10-17T17:56:14.095Z,49.63
2022-10-17T17:58:43.168Z,49.90
2022-10-17T18:01:12.344Z,49.42
2022-10-17T18:03:41.064Z,49.70
2022-10-17T18:06:08.054Z,49.77
2022-10-17T18:08:35.131Z,49.75
2022-10-17T18:11:02.393Z,49.70
2022-10-17T18:13:28.980Z,49.64
2022-10-17T18:15:57.856Z,49.45
2022-10-17T18:18:25.279Z,49.66
2022-10-17T18:20:52.236Z,49.45
2022-10-17T18:23:18.737Z,49.42
2022-10-17T18:25:55.095Z,49.66
2022-10-17T18:28:22.088Z,49.76
2022-10-17T18:30:48.980Z,49.46
2022-10-17T18:33:15.402Z,49.52
2022-10-17T18:35:41.762Z,49.67
2022-10-17T18:38:08.160Z,49.56
2022-10-17T18:40:34.569Z,49.72
2022-10-17T18:43:00.964Z,49.43
2022-10-17T18:45:27.389Z,49.42
2022-10-17T18:47:54.228Z,49.63
2022-10-17T18:50:20.912Z,49.36
2022-10-17T18:52:50.600Z,49.60
2022-10-17T18:55:19.724Z,49.74
2022-10-17T18:57:46.898Z,49.65
2022-10-17T19:00:13.457Z,49.58
2022-10-17T19:02:39.861Z,49.40
2022-10-17T19:05:06.385Z,49.40
2022-10-17T19:07:32.904Z,49.42
2022-10-17T19:09:59.395Z,49.72
2022-10-17T19:12:25.786Z,49.68
2022-10-17T19:14:53.113Z,49.67
2022-10-17T19:17:19.675Z,49.53
2022-10-17T19:19:50.070Z,49.52
2022-10-17T19:22:16.480Z,49.76
2022-10-17T19:24:42.959Z,49.57
2022-10-17T19:27:09.407Z,49.62
2022-10-17T19:29:35.954Z,49.67
2022-10-17T19:32:02.702Z,49.98
2022-10-17T19:34:29.269Z,49.77
2022-10-17T19:36:55.896Z,49.93
2022-10-17T19:39:23.511Z,49.88
2022-10-17T19:41:50.016Z,50.09
2022-10-17T19:44:16.844Z,50.11
2022-10-17T19:46:47.001Z,50.27
2022-10-17T19:49:13.957Z,50.25
2022-10-17T19:51:40.631Z,50.38
2022-10-17T19:54:07.098Z,50.23
2022-10-17T19:56:37.608Z,50.43
2022-10-17T19:59:06.036Z,50.44
2022-10-17T20:01:33.841Z,50.36
2022-10-17T20:04:00.273Z,50.34
2022-10-17T20:06:27.001Z,50.50
2022-10-17T20:08:53.782Z,50.64
2022-10-17T20:11:24.482Z,50.36
2022-10-17T20:13:50.994Z,50.65
2022-10-17T20:16:21.196Z,50.69
2022-10-17T20:18:48.591Z,50.70
2022-10-17T20:21:17.409Z,50.57
2022-10-17T20:23:43.972Z,50.74
2022-10-17T20:26:26.373Z,50.47
2022-10-17T20:29:00.412Z,50.82
2022-10-17T20:31:26.926Z,50.81
2022-10-17T20:33:56.652Z,50.85
2022-10-17T20:36:23.590Z,50.78
2022-10-17T20:38:54.356Z,50.93
2022-10-17T20:41:21.001Z,50.74
2022-10-17T20:43:49.792Z,50.80
2022-10-17T20:46:29.460Z,50.76
2022-10-17T20:49:01.902Z,50.70
2022-10-17T20:51:28.388Z,50.67
2022-10-17T20:53:54.838Z,51.14
2022-10-17T20:56:22.720Z,50.99
2022-10-17T20:59:00.117Z,51.49
2022-10-17T21:01:28.199Z,52.55
2022-10-17T21:03:54.721Z,53.22
2022-10-17T21:06:21.775Z,53.23
2022-10-17T21:08:48.929Z,53.64
2022-10-17T21:11:17.365Z,53.69
2022-10-17T21:13:44.196Z,54.03
2022-10-17T21:16:19.680Z,53.89
2022-10-17T21:18:46.123Z,53.94
2022-10-17T21:21:15.775Z,54.06
2022-10-17T21:23:43.305Z,53.98
2022-10-17T21:26:12.264Z,54.41
2022-10-17T21:28:39.476Z,54.37
2022-10-17T21:31:17.169Z,54.32
2022-10-17T21:33:45.033Z,54.56
2022-10-17T21:36:11.897Z,54.39
2022-10-17T21:38:38.768Z,54.91
2022-10-17T21:41:06.172Z,54.81
2022-10-17T21:43:33.140Z,55.40
2022-10-17T21:46:04.116Z,55.47
2022-10-17T21:48:35.995Z,55.48
2022-10-17T21:51:03.950Z,55.23
2022-10-17T21:53:30.598Z,55.33
2022-10-17T21:56:00.702Z,55.47
2022-10-17T21:58:27.662Z,55.47
2022-10-17T22:00:54.621Z,55.72
2022-10-17T22:03:27.703Z,55.76
2022-10-17T22:06:06.919Z,55.73
2022-10-17T22:08:40.827Z,55.87
2022-10-17T22:11:11.302Z,55.87
2022-10-17T22:13:37.869Z,56.08
2022-10-17T22:16:05.854Z,56.26
2022-10-17T22:18:32.790Z,56.31
2022-10-17T22:21:06.494Z,56.17
2022-10-17T22:23:34.209Z,56.20
2022-10-17T22:26:00.718Z,56.39
2022-10-17T22:28:27.246Z,56.50
2022-10-17T22:30:53.742Z,56.68
2022-10-17T22:35:47.856Z,56.48
2022-10-17T22:38:14.614Z,56.70
2022-10-17T22:40:43.349Z,56.52
2022-10-17T22:43:09.770Z,56.74
2022-10-17T22:45:36.242Z,56.84
2022-10-17T22:48:02.647Z,56.83
2022-10-17T22:50:29.010Z,56.75
2022-10-17T22:52:55.432Z,56.93
2022-10-17T22:55:21.786Z,56.86
2022-10-17T22:57:48.350Z,56.84
2022-10-17T23:00:14.837Z,57.00
2022-10-17T23:02:41.422Z,56.84
2022-10-17T23:05:07.970Z,56.95
2022-10-17T23:07:34.633Z,56.86
2022-10-17T23:10:00.989Z,56.96
2022-10-17T23:12:27.484Z,57.03
2022-10-17T23:14:53.899Z,57.08
2022-10-17T23:17:20.253Z,57.02
2022-10-17T23:19:46.627Z,57.27
2022-10-17T23:22:13.007Z,57.04
2022-10-17T23:24:39.344Z,57.03
2022-10-17T23:27:05.822Z,56.98
2022-10-17T23:29:33.144Z,57.18
2022-10-17T23:31:59.553Z,57.38
2022-10-17T23:34:25.976Z,57.29
2022-10-17T23:36:52.766Z,57.49
2022-10-17T23:39:19.168Z,57.24
2022-10-17T23:41:45.658Z,57.48
2022-10-17T23:44:12.409Z,57.57
2022-10-17T23:46:38.945Z,57.56
2022-10-17T23:49:05.512Z,57.54
2022-10-17T23:51:32.419Z,57.69
2022-10-17T23:53:58.784Z,57.68
2022-10-17T23:56:25.201Z,57.80
2022-10-17T23:58:51.586Z,58.06
